createdAt,value
2018-07-01T00:00:51.422Z,1017.93
2018-07-01T00:01:51.363Z,1017.90
2018-07-01T00:02:51.305Z,1017.91
2018-07-01T00:03:51.243Z,1017.88
2018-07-01T00:04:51.182Z,1017.90
2018-07-01T00:05:51.122Z,1017.88
2018-07-01T00:06:51.056Z,1017.89
2018-07-01T00:07:50.993Z,1017.93
2018-07-01T00:08:50.939Z,1017.92
2018-07-01T00:09:50.875Z,1017.94
2018-07-01T00:10:50.896Z,1017.90
2018-07-01T00:11:50.753Z,1017.95
2018-07-01T00:12:50.695Z,1017.95
2018-07-01T00:13:50.627Z,1017.90
2018-07-01T00:14:50.562Z,1017.91
2018-07-01T00:15:50.510Z,1017.92
2018-07-01T00:16:50.448Z,1017.96
2018-07-01T00:17:50.384Z,1017.99
2018-07-01T00:18:50.325Z,1017.99
2018-07-01T00:19:50.255Z,1018.05
2018-07-01T00:20:50.202Z,1018.02
2018-07-01T00:21:50.127Z,1018.03
2018-07-01T00:22:50.068Z,1018.01
2018-07-01T00:23:50.008Z,1018.02
2018-07-01T00:24:49.950Z,1018.05
2018-07-01T00:25:49.886Z,1018.02
2018-07-01T00:26:49.823Z,1018.04
2018-07-01T00:27:49.770Z,1018.11
2018-07-01T00:28:49.706Z,1018.02
2018-07-01T00:29:49.636Z,1018.05
2018-07-01T00:30:49.578Z,1018.02
2018-07-01T00:31:49.523Z,1018.02
2018-07-01T00:32:49.450Z,1018.01
2018-07-01T00:33:49.392Z,1018.04
2018-07-01T00:34:49.333Z,1018.00
2018-07-01T00:35:49.267Z,1018.00
2018-07-01T00:36:49.212Z,1018.00
2018-07-01T00:37:49.149Z,1018.06
2018-07-01T00:38:49.084Z,1018.06
2018-07-01T00:39:49.024Z,1018.07
2018-07-01T00:40:48.966Z,1017.98
2018-07-01T00:41:48.897Z,1018.02
2018-07-01T00:42:48.839Z,1018.01
2018-07-01T00:43:48.776Z,1018.02
2018-07-01T00:44:48.714Z,1018.05
2018-07-01T00:45:48.652Z,1017.99
2018-07-01T00:46:48.597Z,1018.00
2018-07-01T00:47:48.525Z,1018.04
2018-07-01T00:48:48.468Z,1018.11
2018-07-01T00:49:48.403Z,1018.05
2018-07-01T00:50:48.343Z,1018.03
2018-07-01T00:51:48.281Z,1018.05
2018-07-01T00:52:48.219Z,1018.12
2018-07-01T00:53:48.156Z,1018.06
2018-07-01T00:54:48.094Z,1018.10
2018-07-01T00:55:48.033Z,1018.07
2018-07-01T00:56:47.972Z,1018.05
2018-07-01T00:57:47.910Z,1018.03
2018-07-01T00:58:47.849Z,1018.00
2018-07-01T00:59:47.784Z,1018.06
2018-07-01T01:00:47.723Z,1018.05
2018-07-01T01:01:47.661Z,1018.05
2018-07-01T01:02:47.601Z,1018.09
2018-07-01T01:03:47.541Z,1018.09
2018-07-01T01:04:47.478Z,1018.03
2018-07-01T01:05:47.412Z,1018.04
2018-07-01T01:06:47.352Z,1017.99
2018-07-01T01:07:47.289Z,1018.02
2018-07-01T01:08:47.228Z,1018.02
2018-07-01T01:09:47.164Z,1018.05
2018-07-01T01:10:47.107Z,1018.04
2018-07-01T01:11:47.044Z,1018.04
2018-07-01T01:12:46.985Z,1018.08
2018-07-01T01:13:46.922Z,1018.16
2018-07-01T01:14:46.855Z,1018.10
2018-07-01T01:15:46.795Z,1018.13
2018-07-01T01:16:46.736Z,1018.11
2018-07-01T01:17:46.667Z,1018.10
2018-07-01T01:18:46.615Z,1018.10
2018-07-01T01:19:46.544Z,1018.08
2018-07-01T01:20:46.491Z,1018.11
2018-07-01T01:21:46.423Z,1018.07
2018-07-01T01:22:46.367Z,1018.04
2018-07-01T01:23:46.302Z,1018.00
2018-07-01T01:24:46.233Z,1018.02
2018-07-01T01:25:46.171Z,1017.99
2018-07-01T01:26:46.111Z,1018.03
2018-07-01T01:27:46.045Z,1018.11
2018-07-01T01:28:45.988Z,1018.02
2018-07-01T01:29:45.926Z,1018.00
2018-07-01T01:30:45.862Z,1018.04
2018-07-01T01:31:45.806Z,1017.99
2018-07-01T01:32:45.739Z,1018.02
2018-07-01T01:33:45.674Z,1018.02
2018-07-01T01:34:45.612Z,1018.05
2018-07-01T01:35:45.553Z,1018.06
2018-07-01T01:36:45.489Z,1018.03
2018-07-01T01:37:45.428Z,1018.04
2018-07-01T01:38:45.366Z,1018.05
2018-07-01T01:39:45.310Z,1018.06
2018-07-01T01:40:45.249Z,1018.08
2018-07-01T01:41:45.187Z,1018.10
2018-07-01T01:42:45.127Z,1018.11
2018-07-01T01:43:45.068Z,1018.08
2018-07-01T01:44:44.993Z,1018.09
2018-07-01T01:45:44.929Z,1018.12
2018-07-01T01:46:44.866Z,1018.13
2018-07-01T01:47:44.806Z,1018.11
2018-07-01T01:48:44.746Z,1018.12
2018-07-01T01:49:44.682Z,1018.14
2018-07-01T01:50:44.619Z,1018.12
2018-07-01T01:51:44.556Z,1018.09
2018-07-01T01:52:44.498Z,1018.07
2018-07-01T01:53:44.433Z,1018.08
2018-07-01T01:54:44.375Z,1018.07
2018-07-01T01:55:44.314Z,1018.09
2018-07-01T01:56:44.265Z,1018.07
2018-07-01T01:57:44.179Z,1018.08
2018-07-01T01:58:44.128Z,1018.07
2018-07-01T01:59:44.064Z,1018.08
2018-07-01T02:00:43.998Z,1018.06
2018-07-01T02:01:43.934Z,1018.05
2018-07-01T02:02:43.875Z,1018.07
2018-07-01T02:03:43.811Z,1018.07
2018-07-01T02:04:43.747Z,1018.07
2018-07-01T02:05:43.685Z,1018.09
2018-07-01T02:06:43.623Z,1018.08
2018-07-01T02:07:43.562Z,1018.05
2018-07-01T02:08:43.504Z,1018.06
2018-07-01T02:09:43.435Z,1018.08
2018-07-01T02:10:43.369Z,1018.05
2018-07-01T02:11:43.314Z,1018.05
2018-07-01T02:12:43.255Z,1018.05
2018-07-01T02:13:43.185Z,1018.06
2018-07-01T02:14:43.128Z,1018.11
2018-07-01T02:15:43.062Z,1018.08
2018-07-01T02:16:42.999Z,1018.08
2018-07-01T02:17:42.933Z,1018.05
2018-07-01T02:18:42.872Z,1018.13
2018-07-01T02:19:42.813Z,1018.11
2018-07-01T02:20:42.751Z,1018.13
2018-07-01T02:21:42.687Z,1018.12
2018-07-01T02:22:42.626Z,1018.14
2018-07-01T02:23:42.559Z,1018.20
2018-07-01T02:24:42.501Z,1018.19
2018-07-01T02:25:42.438Z,1018.20
2018-07-01T02:26:42.377Z,1018.20
2018-07-01T02:27:42.314Z,1018.21
2018-07-01T02:28:42.249Z,1018.24
2018-07-01T02:29:42.195Z,1018.26
2018-07-01T02:30:42.128Z,1018.25
2018-07-01T02:31:42.058Z,1018.24
2018-07-01T02:32:42.016Z,1018.28
2018-07-01T02:33:41.941Z,1018.31
2018-07-01T02:34:41.877Z,1018.27
2018-07-01T02:35:41.817Z,1018.31
2018-07-01T02:36:41.751Z,1018.30
2018-07-01T02:37:41.687Z,1018.32
2018-07-01T02:38:41.628Z,1018.32
2018-07-01T02:39:41.565Z,1018.32
2018-07-01T02:40:41.502Z,1018.33
2018-07-01T02:41:41.436Z,1018.32
2018-07-01T02:42:41.377Z,1018.30
2018-07-01T02:43:41.313Z,1018.33
2018-07-01T02:44:41.253Z,1018.33
2018-07-01T02:45:41.189Z,1018.32
2018-07-01T02:46:41.128Z,1018.33
2018-07-01T02:47:41.065Z,1018.33
2018-07-01T02:48:41.001Z,1018.42
2018-07-01T02:49:40.937Z,1018.36
2018-07-01T02:50:40.873Z,1018.34
2018-07-01T02:51:40.812Z,1018.37
2018-07-01T02:52:40.753Z,1018.35
2018-07-01T02:53:40.727Z,1018.31
2018-07-01T02:54:40.642Z,1018.34
2018-07-01T02:55:40.565Z,1018.33
2018-07-01T02:56:40.510Z,1018.33
2018-07-01T02:57:40.439Z,1018.32
2018-07-01T02:58:40.377Z,1018.39
2018-07-01T02:59:40.314Z,1018.40
2018-07-01T03:00:40.256Z,1018.38
2018-07-01T03:01:40.187Z,1018.36
2018-07-01T03:02:40.125Z,1018.39
2018-07-01T03:03:40.065Z,1018.36
2018-07-01T03:04:40.003Z,1018.42
2018-07-01T03:05:39.938Z,1018.39
2018-07-01T03:06:39.876Z,1018.40
2018-07-01T03:07:39.811Z,1018.36
2018-07-01T03:08:39.750Z,1018.42
2018-07-01T03:09:39.691Z,1018.38
2018-07-01T03:10:39.626Z,1018.43
2018-07-01T03:11:39.563Z,1018.43
2018-07-01T03:12:39.497Z,1018.45
2018-07-01T03:13:39.439Z,1018.49
2018-07-01T03:14:39.373Z,1018.48
2018-07-01T03:15:39.312Z,1018.49
2018-07-01T03:16:39.255Z,1018.47
2018-07-01T03:17:39.191Z,1018.44
2018-07-01T03:18:39.119Z,1018.43
2018-07-01T03:19:39.061Z,1018.47
2018-07-01T03:20:38.996Z,1018.47
2018-07-01T03:21:38.933Z,1018.48
2018-07-01T03:22:38.875Z,1018.51
2018-07-01T03:23:38.808Z,1018.47
2018-07-01T03:24:38.755Z,1018.47
2018-07-01T03:25:38.691Z,1018.49
2018-07-01T03:26:38.619Z,1018.45
2018-07-01T03:27:38.555Z,1018.54
2018-07-01T03:28:38.496Z,1018.54
2018-07-01T03:29:38.433Z,1018.54
2018-07-01T03:30:38.369Z,1018.56
2018-07-01T03:31:38.316Z,1018.55
2018-07-01T03:32:38.244Z,1018.58
2018-07-01T03:33:38.181Z,1018.57
2018-07-01T03:34:38.117Z,1018.61
2018-07-01T03:35:38.056Z,1018.54
2018-07-01T03:36:37.996Z,1018.55
2018-07-01T03:37:37.933Z,1018.56
2018-07-01T03:38:37.874Z,1018.55
2018-07-01T03:39:37.808Z,1018.55
2018-07-01T03:40:37.746Z,1018.52
2018-07-01T03:41:37.681Z,1018.51
2018-07-01T03:42:37.618Z,1018.49
2018-07-01T03:43:37.556Z,1018.52
2018-07-01T03:44:37.491Z,1018.48
2018-07-01T03:45:37.427Z,1018.50
2018-07-01T03:46:37.367Z,1018.51
2018-07-01T03:47:37.310Z,1018.51
2018-07-01T03:48:37.245Z,1018.53
2018-07-01T03:49:37.180Z,1018.57
2018-07-01T03:50:37.125Z,1018.57
2018-07-01T03:51:37.058Z,1018.64
2018-07-01T03:52:36.987Z,1018.62
2018-07-01T03:53:36.924Z,1018.63
2018-07-01T03:54:36.876Z,1018.66
2018-07-01T03:55:36.800Z,1018.66
2018-07-01T03:56:36.740Z,1018.66
2018-07-01T03:57:36.698Z,1018.75
2018-07-01T03:58:36.615Z,1018.72
2018-07-01T03:59:36.552Z,1018.74
2018-07-01T04:00:36.573Z,1018.77
2018-07-01T04:01:36.428Z,1018.76
2018-07-01T04:02:36.366Z,1018.76
2018-07-01T04:03:36.301Z,1018.73
2018-07-01T04:04:36.239Z,1018.80
2018-07-01T04:05:36.176Z,1018.80
2018-07-01T04:06:36.117Z,1018.78
2018-07-01T04:07:36.050Z,1018.79
2018-07-01T04:08:35.990Z,1018.89
2018-07-01T04:09:35.928Z,1018.82
2018-07-01T04:10:35.863Z,1018.82
2018-07-01T04:11:35.802Z,1018.87
2018-07-01T04:12:35.742Z,1018.84
2018-07-01T04:13:35.675Z,1018.84
2018-07-01T04:14:35.612Z,1018.83
2018-07-01T04:15:35.559Z,1018.82
2018-07-01T04:16:35.489Z,1018.86
2018-07-01T04:17:35.421Z,1018.83
2018-07-01T04:18:35.364Z,1018.90
2018-07-01T04:19:35.298Z,1018.89
2018-07-01T04:20:35.239Z,1018.88
2018-07-01T04:21:35.172Z,1018.86
2018-07-01T04:22:35.113Z,1018.87
2018-07-01T04:23:35.055Z,1018.90
2018-07-01T04:24:34.981Z,1018.87
2018-07-01T04:25:34.926Z,1018.93
2018-07-01T04:26:34.861Z,1018.90
2018-07-01T04:27:34.801Z,1018.91
2018-07-01T04:28:34.738Z,1018.89
2018-07-01T04:29:34.675Z,1018.92
2018-07-01T04:30:34.610Z,1018.99
2018-07-01T04:31:34.552Z,1018.96
2018-07-01T04:32:34.488Z,1018.99
2018-07-01T04:33:34.423Z,1018.97
2018-07-01T04:34:34.368Z,1018.94
2018-07-01T04:35:34.300Z,1018.94
2018-07-01T04:36:34.239Z,1019.01
2018-07-01T04:37:34.175Z,1018.95
2018-07-01T04:38:34.110Z,1019.01
2018-07-01T04:39:34.046Z,1019.00
2018-07-01T04:40:33.991Z,1019.01
2018-07-01T04:41:33.924Z,1019.02
2018-07-01T04:42:33.864Z,1019.01
2018-07-01T04:43:33.805Z,1019.04
2018-07-01T04:44:33.738Z,1019.09
2018-07-01T04:45:33.670Z,1019.05
2018-07-01T04:46:33.612Z,1019.06
2018-07-01T04:47:33.550Z,1019.03
2018-07-01T04:48:33.488Z,1019.02
2018-07-01T04:49:33.421Z,1019.01
2018-07-01T04:50:33.362Z,1019.02
2018-07-01T04:51:33.310Z,1019.06
2018-07-01T04:52:33.237Z,1019.06
2018-07-01T04:53:33.177Z,1019.07
2018-07-01T04:54:33.114Z,1019.05
2018-07-01T04:55:33.050Z,1019.10
2018-07-01T04:56:32.989Z,1019.12
2018-07-01T04:57:32.928Z,1019.09
2018-07-01T04:58:32.879Z,1019.06
2018-07-01T04:59:32.803Z,1019.11
2018-07-01T05:00:32.743Z,1019.12
2018-07-01T05:01:32.679Z,1019.12
2018-07-01T05:02:32.687Z,1019.13
2018-07-01T05:03:32.564Z,1019.10
2018-07-01T05:04:32.493Z,1019.10
2018-07-01T05:05:32.431Z,1019.15
2018-07-01T05:06:32.372Z,1019.11
2018-07-01T05:07:32.306Z,1019.12
2018-07-01T05:08:32.244Z,1019.13
2018-07-01T05:09:32.183Z,1019.17
2018-07-01T05:10:32.119Z,1019.15
2018-07-01T05:11:32.060Z,1019.15
2018-07-01T05:12:31.995Z,1019.18
2018-07-01T05:13:31.935Z,1019.20
2018-07-01T05:14:31.872Z,1019.18
2018-07-01T05:15:31.821Z,1019.14
2018-07-01T05:16:31.749Z,1019.23
2018-07-01T05:17:31.687Z,1019.19
2018-07-01T05:18:31.626Z,1019.21
2018-07-01T05:19:31.564Z,1019.25
2018-07-01T05:20:31.503Z,1019.34
2018-07-01T05:21:31.439Z,1019.32
2018-07-01T05:22:31.378Z,1019.32
2018-07-01T05:23:31.319Z,1019.28
2018-07-01T05:24:31.259Z,1019.19
2018-07-01T05:25:31.193Z,1019.16
2018-07-01T05:26:31.137Z,1019.14
2018-07-01T05:27:31.095Z,1019.09
2018-07-01T05:28:31.018Z,1019.12
2018-07-01T05:29:30.953Z,1019.16
2018-07-01T05:30:30.887Z,1019.16
2018-07-01T05:31:30.825Z,1019.09
2018-07-01T05:32:30.767Z,1019.13
2018-07-01T05:33:30.704Z,1019.12
2018-07-01T05:34:30.642Z,1019.11
2018-07-01T05:35:30.588Z,1019.11
2018-07-01T05:36:30.531Z,1019.13
2018-07-01T05:37:30.462Z,1019.16
2018-07-01T05:38:30.400Z,1019.16
2018-07-01T05:39:30.376Z,1019.12
2018-07-01T05:40:30.290Z,1019.18
2018-07-01T05:41:30.218Z,1019.14
2018-07-01T05:42:30.158Z,1019.16
2018-07-01T05:43:30.095Z,1019.16
2018-07-01T05:44:30.038Z,1019.16
2018-07-01T05:45:29.978Z,1019.20
2018-07-01T05:46:29.917Z,1019.19
2018-07-01T05:47:29.853Z,1019.18
2018-07-01T05:48:29.792Z,1019.13
2018-07-01T05:49:29.791Z,1019.18
2018-07-01T05:50:29.670Z,1019.16
2018-07-01T05:51:29.607Z,1019.13
2018-07-01T05:52:29.550Z,1019.19
2018-07-01T05:53:29.489Z,1019.17
2018-07-01T05:54:29.424Z,1019.16
2018-07-01T05:55:29.366Z,1019.18
2018-07-01T05:56:29.307Z,1019.21
2018-07-01T05:57:29.243Z,1019.19
2018-07-01T05:58:29.183Z,1019.18
2018-07-01T05:59:29.121Z,1019.19
2018-07-01T06:00:29.058Z,1019.23
2018-07-01T06:01:29.002Z,1019.21
2018-07-01T06:02:28.937Z,1019.27
2018-07-01T06:03:28.877Z,1019.21
2018-07-01T06:04:28.818Z,1019.20
2018-07-01T06:05:28.755Z,1019.25
2018-07-01T06:06:28.694Z,1019.19
2018-07-01T06:07:28.641Z,1019.22
2018-07-01T06:08:28.574Z,1019.26
2018-07-01T06:09:28.513Z,1019.29
2018-07-01T06:10:28.451Z,1019.29
2018-07-01T06:11:28.392Z,1019.29
2018-07-01T06:12:28.367Z,1019.30
2018-07-01T06:13:28.266Z,1019.35
2018-07-01T06:14:28.211Z,1019.32
2018-07-01T06:15:28.155Z,1019.30
2018-07-01T06:16:28.169Z,1019.37
2018-07-01T06:17:28.028Z,1019.33
2018-07-01T06:18:27.971Z,1019.35
2018-07-01T06:19:27.904Z,1019.35
2018-07-01T06:20:27.847Z,1019.36
2018-07-01T06:21:27.790Z,1019.35
2018-07-01T06:22:27.721Z,1019.37
2018-07-01T06:23:27.664Z,1019.35
2018-07-01T06:24:27.643Z,1019.32
2018-07-01T06:25:27.541Z,1019.33
2018-07-01T06:26:27.482Z,1019.31
2018-07-01T06:27:27.424Z,1019.34
2018-07-01T06:28:27.369Z,1019.34
2018-07-01T06:29:27.304Z,1019.35
2018-07-01T06:30:27.241Z,1019.38
2018-07-01T06:31:27.184Z,1019.36
2018-07-01T06:32:27.117Z,1019.34
2018-07-01T06:33:27.056Z,1019.33
2018-07-01T06:34:27.011Z,1019.31
2018-07-01T06:35:26.935Z,1019.36
2018-07-01T06:36:26.879Z,1019.36
2018-07-01T06:37:26.819Z,1019.32
2018-07-01T06:38:26.758Z,1019.33
2018-07-01T06:39:26.700Z,1019.33
2018-07-01T06:40:26.639Z,1019.33
2018-07-01T06:41:26.578Z,1019.34
2018-07-01T06:42:26.520Z,1019.30
2018-07-01T06:43:26.460Z,1019.31
2018-07-01T06:44:26.395Z,1019.28
2018-07-01T06:45:26.335Z,1019.30
2018-07-01T06:46:26.277Z,1019.32
2018-07-01T06:47:26.219Z,1019.27
2018-07-01T06:48:26.153Z,1019.27
2018-07-01T06:49:26.122Z,1019.26
2018-07-01T06:50:26.033Z,1019.28
2018-07-01T06:51:25.976Z,1019.32
2018-07-01T06:52:25.919Z,1019.27
2018-07-01T06:53:25.861Z,1019.26
2018-07-01T06:54:25.792Z,1019.29
2018-07-01T06:55:25.750Z,1019.28
2018-07-01T06:56:25.733Z,1019.29
2018-07-01T06:57:25.628Z,1019.21
2018-07-01T06:58:25.564Z,1019.28
2018-07-01T06:59:25.501Z,1019.32
2018-07-01T07:00:25.445Z,1019.29
2018-07-01T07:01:25.378Z,1019.29
2018-07-01T07:02:25.385Z,1019.32
2018-07-01T07:03:25.262Z,1019.30
2018-07-01T07:04:25.204Z,1019.33
2018-07-01T07:05:25.137Z,1019.32
2018-07-01T07:06:25.078Z,1019.31
2018-07-01T07:07:25.019Z,1019.30
2018-07-01T07:08:24.959Z,1019.30
2018-07-01T07:09:24.896Z,1019.31
2018-07-01T07:10:24.838Z,1019.31
2018-07-01T07:11:24.779Z,1019.27
2018-07-01T07:12:24.717Z,1019.34
2018-07-01T07:13:24.664Z,1019.32
2018-07-01T07:14:24.598Z,1019.34
2018-07-01T07:15:24.536Z,1019.37
2018-07-01T07:16:24.486Z,1019.31
2018-07-01T07:17:24.418Z,1019.25
2018-07-01T07:18:24.357Z,1019.28
2018-07-01T07:19:24.299Z,1019.28
2018-07-01T07:20:24.236Z,1019.27
2018-07-01T07:21:24.179Z,1019.28
2018-07-01T07:22:24.122Z,1019.24
2018-07-01T07:23:24.064Z,1019.30
2018-07-01T07:24:24.037Z,1019.27
2018-07-01T07:25:23.938Z,1019.28
2018-07-01T07:26:23.880Z,1019.24
2018-07-01T07:27:23.819Z,1019.21
2018-07-01T07:28:23.764Z,1019.22
2018-07-01T07:29:23.704Z,1019.15
2018-07-01T07:30:23.642Z,1019.19
2018-07-01T07:31:23.590Z,1019.21
2018-07-01T07:32:23.525Z,1019.16
2018-07-01T07:33:23.461Z,1019.22
2018-07-01T07:34:23.401Z,1019.26
2018-07-01T07:35:23.345Z,1019.18
2018-07-01T07:36:23.287Z,1019.19
2018-07-01T07:37:23.226Z,1019.09
2018-07-01T07:38:23.168Z,1019.15
2018-07-01T07:39:23.110Z,1019.19
2018-07-01T07:40:23.048Z,1019.16
2018-07-01T07:41:23.009Z,1019.15
2018-07-01T07:42:22.925Z,1019.16
2018-07-01T07:43:22.874Z,1019.14
2018-07-01T07:44:22.810Z,1019.17
2018-07-01T07:45:22.742Z,1019.18
2018-07-01T07:46:22.689Z,1019.24
2018-07-01T07:47:22.630Z,1019.26
2018-07-01T07:48:22.577Z,1019.22
2018-07-01T07:49:22.515Z,1019.20
2018-07-01T07:50:22.457Z,1019.16
2018-07-01T07:51:22.396Z,1019.10
2018-07-01T07:52:22.406Z,1019.13
2018-07-01T07:53:22.273Z,1019.14
2018-07-01T07:54:22.214Z,1019.16
2018-07-01T07:55:22.159Z,1019.15
2018-07-01T07:56:22.118Z,1019.20
2018-07-01T07:57:22.043Z,1019.13
2018-07-01T07:58:21.980Z,1019.10
2018-07-01T07:59:21.918Z,1019.10
2018-07-01T08:00:21.868Z,1019.11
2018-07-01T08:01:21.805Z,1019.12
2018-07-01T08:02:21.750Z,1019.15
2018-07-01T08:03:21.689Z,1019.12
2018-07-01T08:04:21.627Z,1019.10
2018-07-01T08:05:22.119Z,1019.16
2018-07-01T08:06:21.512Z,1019.16
2018-07-01T08:07:21.470Z,1019.16
2018-07-01T08:08:21.391Z,1019.13
2018-07-01T08:09:21.334Z,1019.04
2018-07-01T08:10:21.287Z,1019.09
2018-07-01T08:11:21.218Z,1019.13
2018-07-01T08:12:21.159Z,1019.16
2018-07-01T08:13:21.095Z,1019.12
2018-07-01T08:14:21.042Z,1019.21
2018-07-01T08:15:20.987Z,1019.17
2018-07-01T08:16:20.928Z,1019.19
2018-07-01T08:17:20.887Z,1019.14
2018-07-01T08:18:20.807Z,1019.16
2018-07-01T08:19:20.748Z,1019.16
2018-07-01T08:20:20.688Z,1019.14
2018-07-01T08:21:20.632Z,1019.09
2018-07-01T08:22:20.576Z,1019.17
2018-07-01T08:23:20.515Z,1019.21
2018-07-01T08:24:20.456Z,1019.26
2018-07-01T08:25:20.396Z,1019.29
2018-07-01T08:26:20.341Z,1019.18
2018-07-01T08:27:20.282Z,1019.35
2018-07-01T08:28:20.228Z,1019.35
2018-07-01T08:29:20.166Z,1019.32
2018-07-01T08:30:20.101Z,1019.39
2018-07-01T08:31:20.045Z,1019.35
2018-07-01T08:32:19.995Z,1019.25
2018-07-01T08:33:19.930Z,1019.18
2018-07-01T08:34:19.871Z,1019.12
2018-07-01T08:35:19.814Z,1019.14
2018-07-01T08:36:19.781Z,1019.13
2018-07-01T08:37:19.693Z,1019.18
2018-07-01T08:38:19.654Z,1019.11
2018-07-01T08:39:19.584Z,1019.20
2018-07-01T08:40:19.577Z,1019.16
2018-07-01T08:41:19.465Z,1019.16
2018-07-01T08:42:19.404Z,1019.14
2018-07-01T08:43:19.380Z,1019.06
2018-07-01T08:44:19.286Z,1019.05
2018-07-01T08:45:19.223Z,1019.05
2018-07-01T08:46:19.188Z,1019.04
2018-07-01T08:47:19.112Z,1019.00
2018-07-01T08:48:19.056Z,1019.04
2018-07-01T08:49:19.000Z,1019.03
2018-07-01T08:50:18.939Z,1019.02
2018-07-01T08:51:18.874Z,1019.02
2018-07-01T08:52:18.847Z,1018.96
2018-07-01T08:53:18.763Z,1018.99
2018-07-01T08:54:18.705Z,1019.02
2018-07-01T08:55:18.650Z,1019.06
2018-07-01T08:56:18.587Z,1019.04
2018-07-01T08:57:18.527Z,1019.01
2018-07-01T08:58:18.468Z,1019.26
2018-07-01T08:59:18.410Z,1019.41
2018-07-01T09:00:18.365Z,1019.37
2018-07-01T09:01:18.302Z,1019.40
2018-07-01T09:02:18.236Z,1019.46
2018-07-01T09:03:18.179Z,1019.49
2018-07-01T09:04:18.121Z,1019.43
2018-07-01T09:05:18.064Z,1019.45
2018-07-01T09:06:18.005Z,1019.47
2018-07-01T09:07:17.948Z,1019.39
2018-07-01T09:08:17.894Z,1019.42
2018-07-01T09:09:17.826Z,1019.47
2018-07-01T09:10:17.771Z,1019.40
2018-07-01T09:11:17.716Z,1019.32
2018-07-01T09:12:17.666Z,1019.39
2018-07-01T09:13:17.611Z,1019.35
2018-07-01T09:14:17.545Z,1019.31
2018-07-01T09:15:17.494Z,1019.29
2018-07-01T09:16:17.429Z,1019.26
2018-07-01T09:17:17.427Z,1019.22
2018-07-01T09:18:17.316Z,1019.31
2018-07-01T09:19:17.263Z,1019.23
2018-07-01T09:20:17.210Z,1019.16
2018-07-01T09:21:17.151Z,1019.13
2018-07-01T09:22:17.088Z,1019.17
2018-07-01T09:23:17.030Z,1019.23
2018-07-01T09:24:16.972Z,1019.32
2018-07-01T09:25:16.913Z,1019.26
2018-07-01T09:26:16.859Z,1019.13
2018-07-01T09:27:16.812Z,1019.06
2018-07-01T09:28:16.748Z,1019.02
2018-07-01T09:29:16.688Z,1018.96
2018-07-01T09:30:16.629Z,1018.99
2018-07-01T09:31:16.569Z,1019.01
2018-07-01T09:32:16.521Z,1019.03
2018-07-01T09:33:16.489Z,1019.07
2018-07-01T09:34:16.455Z,1018.99
2018-07-01T09:35:16.351Z,1019.12
2018-07-01T09:36:16.284Z,1019.05
2018-07-01T09:37:16.231Z,1018.91
2018-07-01T09:38:16.172Z,1018.99
2018-07-01T09:39:16.119Z,1018.96
2018-07-01T09:40:16.055Z,1018.90
2018-07-01T09:41:15.993Z,1018.91
2018-07-01T09:42:15.944Z,1018.87
2018-07-01T09:43:15.896Z,1018.88
2018-07-01T09:44:24.483Z,1018.90
2018-07-01T09:46:09.141Z,1018.94
2018-07-01T09:47:09.043Z,1018.95
2018-07-01T09:48:08.994Z,1018.90
2018-07-01T09:49:08.924Z,1018.89
2018-07-01T09:50:08.875Z,1018.87
2018-07-01T09:51:08.815Z,1018.91
2018-07-01T09:52:08.757Z,1018.96
2018-07-01T09:53:08.698Z,1018.91
2018-07-01T09:54:08.656Z,1018.93
2018-07-01T09:55:08.582Z,1018.92
2018-07-01T09:56:08.528Z,1018.97
2018-07-01T09:57:08.468Z,1019.03
2018-07-01T09:58:08.418Z,1019.11
2018-07-01T09:59:08.347Z,1019.14
2018-07-01T10:00:08.299Z,1019.10
2018-07-01T10:01:08.327Z,1019.11
2018-07-01T10:02:08.188Z,1019.11
2018-07-01T10:03:08.132Z,1019.08
2018-07-01T10:04:08.065Z,1019.02
2018-07-01T10:05:08.010Z,1018.98
2018-07-01T10:06:07.949Z,1018.93
2018-07-01T10:07:07.893Z,1018.93
2018-07-01T10:08:07.838Z,1019.00
2018-07-01T10:09:07.797Z,1019.05
2018-07-01T10:10:07.743Z,1019.11
2018-07-01T10:11:07.662Z,1019.17
2018-07-01T10:12:07.663Z,1019.15
2018-07-01T10:13:07.545Z,1019.06
2018-07-01T10:14:07.541Z,1019.02
2018-07-01T10:15:07.435Z,1018.98
2018-07-01T10:16:07.374Z,1018.99
2018-07-01T10:17:07.338Z,1019.00
2018-07-01T10:18:07.275Z,1019.02
2018-07-01T10:19:07.205Z,1018.97
2018-07-01T10:20:07.147Z,1018.99
2018-07-01T10:21:07.090Z,1018.97
2018-07-01T10:22:07.028Z,1018.98
2018-07-01T10:23:06.978Z,1019.01
2018-07-01T10:24:06.920Z,1019.15
2018-07-01T10:25:06.869Z,1019.19
2018-07-01T10:26:06.797Z,1019.25
2018-07-01T10:27:06.747Z,1019.27
2018-07-01T10:28:06.705Z,1019.30
2018-07-01T10:29:06.627Z,1019.20
2018-07-01T10:30:06.579Z,1019.33
2018-07-01T10:31:06.552Z,1019.30
2018-07-01T10:32:06.464Z,1019.35
2018-07-01T10:33:06.405Z,1019.32
2018-07-01T10:34:06.338Z,1019.28
2018-07-01T10:35:06.289Z,1019.30
2018-07-01T10:36:06.225Z,1019.24
2018-07-01T10:37:06.177Z,1019.36
2018-07-01T10:38:06.118Z,1019.39
2018-07-01T10:39:06.065Z,1019.47
2018-07-01T10:40:06.008Z,1019.46
2018-07-01T10:41:05.947Z,1019.42
2018-07-01T10:42:05.898Z,1019.38
2018-07-01T10:43:05.835Z,1019.28
2018-07-01T10:44:05.779Z,1019.23
2018-07-01T10:45:05.730Z,1019.32
2018-07-01T10:46:05.668Z,1019.35
2018-07-01T10:47:05.606Z,1019.33
2018-07-01T10:48:05.559Z,1019.28
2018-07-01T10:49:05.498Z,1019.17
2018-07-01T10:50:05.454Z,1019.12
2018-07-01T10:51:05.389Z,1018.95
2018-07-01T10:52:05.335Z,1018.89
2018-07-01T10:53:05.303Z,1018.85
2018-07-01T10:54:05.225Z,1018.88
2018-07-01T10:55:05.169Z,1018.89
2018-07-01T10:56:05.113Z,1018.78
2018-07-01T10:57:05.060Z,1018.75
2018-07-01T10:58:05.011Z,1018.74
2018-07-01T10:59:04.949Z,1018.69
2018-07-01T11:00:04.883Z,1018.69
2018-07-01T11:01:04.829Z,1018.81
2018-07-01T11:02:04.780Z,1018.80
2018-07-01T11:03:04.720Z,1018.85
2018-07-01T11:04:04.665Z,1018.88
2018-07-01T11:05:04.607Z,1018.88
2018-07-01T11:06:04.659Z,1018.79
2018-07-01T11:07:04.497Z,1018.70
2018-07-01T11:08:04.441Z,1018.68
2018-07-01T11:09:04.377Z,1018.65
2018-07-01T11:10:04.334Z,1018.77
2018-07-01T11:11:04.265Z,1018.89
2018-07-01T11:12:04.214Z,1018.97
2018-07-01T11:13:04.170Z,1018.89
2018-07-01T11:14:04.110Z,1018.88
2018-07-01T11:15:04.046Z,1018.84
2018-07-01T11:16:03.991Z,1018.82
2018-07-01T11:17:03.943Z,1018.83
2018-07-01T11:18:03.875Z,1018.84
2018-07-01T11:19:03.832Z,1018.79
2018-07-01T11:20:03.768Z,1018.72
2018-07-01T11:21:03.712Z,1018.82
2018-07-01T11:22:03.660Z,1019.35
2018-07-01T11:23:03.604Z,1019.69
2018-07-01T11:24:04.242Z,1019.85
2018-07-01T11:25:03.537Z,1019.86
2018-07-01T11:26:03.453Z,1019.91
2018-07-01T11:27:03.595Z,1019.87
2018-07-01T11:28:03.341Z,1019.76
2018-07-01T11:29:03.291Z,1019.70
2018-07-01T11:30:03.234Z,1019.71
2018-07-01T11:31:03.201Z,1019.70
2018-07-01T11:32:03.140Z,1019.69
2018-07-01T11:33:03.081Z,1019.69
2018-07-01T11:34:03.037Z,1019.96
2018-07-01T11:35:02.985Z,1020.09
2018-07-01T11:36:02.929Z,1020.19
2018-07-01T11:37:02.880Z,1020.25
2018-07-01T11:38:02.894Z,1020.26
2018-07-01T11:39:02.781Z,1020.20
2018-07-01T11:40:02.734Z,1019.58
2018-07-01T11:41:02.678Z,1019.49
2018-07-01T11:42:02.632Z,1019.88
2018-07-01T11:43:02.590Z,1019.61
2018-07-01T11:44:02.540Z,1019.58
2018-07-01T11:45:02.504Z,1019.32
2018-07-01T11:46:02.442Z,1019.09
2018-07-01T11:47:02.396Z,1019.24
2018-07-01T11:48:02.348Z,1020.20
2018-07-01T11:49:02.301Z,1020.15
2018-07-01T11:50:02.251Z,1020.24
2018-07-01T11:51:02.206Z,1020.33
2018-07-01T11:52:02.155Z,1020.38
2018-07-01T11:53:02.116Z,1020.40
2018-07-01T11:54:02.065Z,1020.43
2018-07-01T11:55:02.021Z,1019.30
2018-07-01T11:56:01.976Z,1020.22
2018-07-01T11:57:01.930Z,1020.25
2018-07-01T11:58:01.894Z,1020.26
2018-07-01T11:59:01.834Z,1019.80
2018-07-01T12:00:01.853Z,1019.03
2018-07-01T12:01:01.746Z,1019.06
2018-07-01T12:02:01.700Z,1018.94
2018-07-01T12:03:01.650Z,1018.89
2018-07-01T12:04:01.621Z,1018.77
2018-07-01T12:05:16.211Z,1018.70
2018-07-01T12:06:01.525Z,1018.74